sensor_id;sensor_type;location;lat;lon;timestamp;pressure;altitude;pressure_sealevel;temperature;humidity
22605;BME280;11469;49.024;8.246;2023-11-21T00:02:01;99806.94;;;9.18;100.00
22605;BME280;11469;49.024;8.246;2023-11-21T00:04:27;99804.50;;;9.16;100.00
22605;BME280;11469;49.024;8.246;2023-11-21T00:06:53;99806.13;;;9.17;100.00
22605;BME280;11469;49.024;8.246;2023-11-21T00:09:19;99808.56;;;9.19;100.00
22605;BME280;11469;49.024;8.246;2023-11-21T00:11:45;99804.16;;;9.18;100.00
22605;BME280;11469;49.024;8.246;2023-11-21T00:14:13;99804.59;;;9.20;100.00
22605;BME280;11469;49.024;8.246;2023-11-21T00:16:40;99805.31;;;9.17;100.00
22605;BME280;11469;49.024;8.246;2023-11-21T00:19:06;99802.44;;;9.13;100.00
22605;BME280;11469;49.024;8.246;2023-11-21T00:21:31;99798.94;;;9.16;100.00
22605;BME280;11469;49.024;8.246;2023-11-21T00:23:57;99799.72;;;9.17;100.00
22605;BME280;11469;49.024;8.246;2023-11-21T00:26:23;99802.16;;;9.18;100.00
22605;BME280;11469;49.024;8.246;2023-11-21T00:28:52;99800.25;;;9.22;100.00
22605;BME280;11469;49.024;8.246;2023-11-21T00:31:17;99801.34;;;9.18;100.00
22605;BME280;11469;49.024;8.246;2023-11-21T00:33:42;99797.47;;;9.22;100.00
22605;BME280;11469;49.024;8.246;2023-11-21T00:36:08;99802.69;;;9.24;100.00
22605;BME280;11469;49.024;8.246;2023-11-21T00:38:35;99804.75;;;9.27;100.00
22605;BME280;11469;49.024;8.246;2023-11-21T00:41:01;99794.75;;;9.26;100.00
22605;BME280;11469;49.024;8.246;2023-11-21T00:43:26;99791.94;;;9.26;100.00
22605;BME280;11469;49.024;8.246;2023-11-21T00:45:51;99784.00;;;9.28;100.00
22605;BME280;11469;49.024;8.246;2023-11-21T00:48:17;99782.38;;;9.27;100.00
22605;BME280;11469;49.024;8.246;2023-11-21T00:50:43;99783.84;;;9.21;100.00
22605;BME280;11469;49.024;8.246;2023-11-21T00:53:09;99791.94;;;9.26;100.00
22605;BME280;11469;49.024;8.246;2023-11-21T00:55:34;99786.78;;;9.28;100.00
22605;BME280;11469;49.024;8.246;2023-11-21T00:58:00;99787.53;;;9.25;100.00
22605;BME280;11469;49.024;8.246;2023-11-21T01:00:25;99785.16;;;9.27;100.00
22605;BME280;11469;49.024;8.246;2023-11-21T01:02:51;99789.97;;;9.26;100.00
22605;BME280;11469;49.024;8.246;2023-11-21T01:05:17;99787.53;;;9.25;100.00
22605;BME280;11469;49.024;8.246;2023-11-21T01:07:42;99792.69;;;9.23;100.00
22605;BME280;11469;49.024;8.246;2023-11-21T01:10:10;99799.59;;;9.29;100.00
22605;BME280;11469;49.024;8.246;2023-11-21T01:12:36;99796.72;;;9.25;100.00
22605;BME280;11469;49.024;8.246;2023-11-21T01:15:04;99797.75;;;9.37;100.00
22605;BME280;11469;49.024;8.246;2023-11-21T01:17:32;99804.81;;;9.30;100.00
22605;BME280;11469;49.024;8.246;2023-11-21T01:20:04;99801.28;;;9.34;100.00
22605;BME280;11469;49.024;8.246;2023-11-21T01:22:35;99801.22;;;9.30;100.00
22605;BME280;11469;49.024;8.246;2023-11-21T01:25:01;99809.91;;;9.25;100.00
22605;BME280;11469;49.024;8.246;2023-11-21T01:27:29;99815.13;;;9.26;100.00
22605;BME280;11469;49.024;8.246;2023-11-21T01:29:55;99809.91;;;9.25;100.00
22605;BME280;11469;49.024;8.246;2023-11-21T01:32:20;99823.16;;;9.28;100.00
22605;BME280;11469;49.024;8.246;2023-11-21T01:34:47;99809.44;;;9.23;100.00
22605;BME280;11469;49.024;8.246;2023-11-21T01:37:13;99818.28;;;9.25;100.00
22605;BME280;11469;49.024;8.246;2023-11-21T01:39:38;99814.75;;;9.28;100.00
22605;BME280;11469;49.024;8.246;2023-11-21T01:42:05;99817.84;;;9.23;100.00
22605;BME280;11469;49.024;8.246;2023-11-21T01:44:30;99818.66;;;9.23;100.00
22605;BME280;11469;49.024;8.246;2023-11-21T01:46:56;99808.66;;;9.22;100.00
22605;BME280;11469;49.024;8.246;2023-11-21T01:49:22;99803.41;;;9.21;100.00
22605;BME280;11469;49.024;8.246;2023-11-21T01:51:49;99812.16;;;9.19;100.00
22605;BME280;11469;49.024;8.246;2023-11-21T01:54:16;99807.38;;;9.20;100.00
22605;BME280;11469;49.024;8.246;2023-11-21T01:56:46;99813.78;;;9.20;100.00
22605;BME280;11469;49.024;8.246;2023-11-21T01:59:14;99809.28;;;9.16;100.00
22605;BME280;11469;49.024;8.246;2023-11-21T02:01:43;99805.25;;;9.13;100.00
22605;BME280;11469;49.024;8.246;2023-11-21T02:04:09;99799.56;;;9.10;100.00
22605;BME280;11469;49.024;8.246;2023-11-21T02:06:35;99795.69;;;9.14;100.00
22605;BME280;11469;49.024;8.246;2023-11-21T02:09:00;99796.69;;;9.06;100.00
22605;BME280;11469;49.024;8.246;2023-11-21T02:11:26;99810.75;;;9.10;100.00
22605;BME280;11469;49.024;8.246;2023-11-21T02:13:53;99809.06;;;9.05;100.00
22605;BME280;11469;49.024;8.246;2023-11-21T02:16:19;99811.03;;;9.05;100.00
22605;BME280;11469;49.024;8.246;2023-11-21T02:18:47;99807.72;;;8.99;100.00
22605;BME280;11469;49.024;8.246;2023-11-21T02:21:14;99810.50;;;8.99;100.00
22605;BME280;11469;49.024;8.246;2023-11-21T02:23:39;99814.06;;;8.96;100.00
22605;BME280;11469;49.024;8.246;2023-11-21T02:26:09;99808.84;;;8.94;100.00
22605;BME280;11469;49.024;8.246;2023-11-21T02:28:35;99805.59;;;8.92;100.00
22605;BME280;11469;49.024;8.246;2023-11-21T02:31:01;99803.63;;;8.93;100.00
22605;BME280;11469;49.024;8.246;2023-11-21T02:33:28;99807.16;;;8.90;100.00
22605;BME280;11469;49.024;8.246;2023-11-21T02:35:53;99809.56;;;8.91;100.00
22605;BME280;11469;49.024;8.246;2023-11-21T02:38:21;99797.59;;;8.91;100.00
22605;BME280;11469;49.024;8.246;2023-11-21T02:40:46;99803.97;;;8.91;100.00
22605;BME280;11469;49.024;8.246;2023-11-21T02:43:11;99800.31;;;8.87;100.00
22605;BME280;11469;49.024;8.246;2023-11-21T02:45:37;99798.69;;;8.86;100.00
22605;BME280;11469;49.024;8.246;2023-11-21T02:48:02;99802.38;;;8.90;100.00
22605;BME280;11469;49.024;8.246;2023-11-21T02:50:28;99801.09;;;8.88;100.00
22605;BME280;11469;49.024;8.246;2023-11-21T02:52:55;99796.16;;;8.81;100.00
22605;BME280;11469;49.024;8.246;2023-11-21T02:55:22;99791.03;;;8.83;100.00
22605;BME280;11469;49.024;8.246;2023-11-21T02:57:50;99796.53;;;8.80;100.00
22605;BME280;11469;49.024;8.246;2023-11-21T03:00:16;99796.16;;;8.81;100.00
22605;BME280;11469;49.024;8.246;2023-11-21T03:02:42;99785.78;;;8.82;100.00
22605;BME280;11469;49.024;8.246;2023-11-21T03:05:09;99783.72;;;8.79;100.00
22605;BME280;11469;49.024;8.246;2023-11-21T03:07:39;99792.94;;;8.79;100.00
22605;BME280;11469;49.024;8.246;2023-11-21T03:10:06;99787.63;;;8.74;100.00
22605;BME280;11469;49.024;8.246;2023-11-21T03:12:31;99790.03;;;8.76;100.00
22605;BME280;11469;49.024;8.246;2023-11-21T03:14:57;99793.66;;;8.76;100.00
22605;BME280;11469;49.024;8.246;2023-11-21T03:17:22;99798.88;;;8.78;100.00
22605;BME280;11469;49.024;8.246;2023-11-21T03:19:47;99794.47;;;8.77;100.00
22605;BME280;11469;49.024;8.246;2023-11-21T03:22:13;99796.44;;;8.76;100.00
22605;BME280;11469;49.024;8.246;2023-11-21T03:24:38;99794.00;;;8.75;100.00
22605;BME280;11469;49.024;8.246;2023-11-21T03:27:04;99801.22;;;8.76;100.00
22605;BME280;11469;49.024;8.246;2023-11-21T03:29:29;99798.78;;;8.74;100.00
22605;BME280;11469;49.024;8.246;2023-11-21T03:31:55;99798.78;;;8.74;100.00
22605;BME280;11469;49.024;8.246;2023-11-21T03:34:26;99798.88;;;8.78;100.00
22605;BME280;11469;49.024;8.246;2023-11-21T03:36:51;99799.97;;;8.73;100.00
22605;BME280;11469;49.024;8.246;2023-11-21T03:39:18;99797.25;;;8.77;100.00
22605;BME280;11469;49.024;8.246;2023-11-21T03:41:44;99798.06;;;8.77;100.00
22605;BME280;11469;49.024;8.246;2023-11-21T03:44:09;99798.78;;;8.74;100.00
22605;BME280;11469;49.024;8.246;2023-11-21T03:46:35;99799.97;;;8.73;100.00
22605;BME280;11469;49.024;8.246;2023-11-21T03:49:01;99801.50;;;8.71;100.00
22605;BME280;11469;49.024;8.246;2023-11-21T03:51:26;99807.44;;;8.69;100.00
22605;BME280;11469;49.024;8.246;2023-11-21T03:53:51;99806.63;;;8.69;100.00
22605;BME280;11469;49.024;8.246;2023-11-21T03:56:17;99811.34;;;8.64;100.00
22605;BME280;11469;49.024;8.246;2023-11-21T03:58:42;99802.94;;;8.64;100.00
22605;BME280;11469;49.024;8.246;2023-11-21T04:01:08;99808.44;;;8.61;100.00
22605;BME280;11469;49.024;8.246;2023-11-21T04:03:33;99800.53;;;8.63;100.00
22605;BME280;11469;49.024;8.246;2023-11-21T04:05:58;99806.09;;;8.63;100.00
22605;BME280;11469;49.024;8.246;2023-11-21T04:08:24;99799.72;;;8.62;100.00
22605;BME280;11469;49.024;8.246;2023-11-21T04:10:51;99808.91;;;8.63;100.00
22605;BME280;11469;49.024;8.246;2023-11-21T04:13:18;99807.38;;;8.65;100.00
22605;BME280;11469;49.024;8.246;2023-11-21T04:15:44;99818.53;;;8.65;100.00
22605;BME280;11469;49.024;8.246;2023-11-21T04:18:09;99827.00;;;8.69;100.00
22605;BME280;11469;49.024;8.246;2023-11-21T04:20:35;99826.72;;;8.74;100.00
22605;BME280;11469;49.024;8.246;2023-11-21T04:23:01;99821.41;;;8.69;100.00
22605;BME280;11469;49.024;8.246;2023-11-21T04:25:26;99833.41;;;8.70;100.00
22605;BME280;11469;49.024;8.246;2023-11-21T04:27:52;99827.00;;;8.69;100.00
22605;BME280;11469;49.024;8.246;2023-11-21T04:30:18;99836.28;;;8.73;100.00
22605;BME280;11469;49.024;8.246;2023-11-21T04:32:43;99838.63;;;8.71;100.00
22605;BME280;11469;49.024;8.246;2023-11-21T04:35:09;99831.88;;;8.72;100.00
22605;BME280;11469;49.024;8.246;2023-11-21T04:37:34;99841.44;;;8.71;100.00
22605;BME280;11469;49.024;8.246;2023-11-21T04:39:59;99837.00;;;8.70;100.00
22605;BME280;11469;49.024;8.246;2023-11-21T04:42:25;99839.44;;;8.72;100.00
22605;BME280;11469;49.024;8.246;2023-11-21T04:44:50;99837.09;;;8.74;100.00
22605;BME280;11469;49.024;8.246;2023-11-21T04:47:18;99853.50;;;8.75;100.00
22605;BME280;11469;49.024;8.246;2023-11-21T04:49:45;99844.38;;;8.78;100.00
22605;BME280;11469;49.024;8.246;2023-11-21T04:52:12;99847.19;;;8.78;100.00
22605;BME280;11469;49.024;8.246;2023-11-21T04:54:37;99851.16;;;8.77;100.00
22605;BME280;11469;49.024;8.246;2023-11-21T04:57:05;99849.97;;;8.78;100.00
22605;BME280;11469;49.024;8.246;2023-11-21T04:59:32;99851.97;;;8.78;100.00
22605;BME280;11469;49.024;8.246;2023-11-21T05:01:58;99856.38;;;8.79;100.00
22605;BME280;11469;49.024;8.246;2023-11-21T05:04:25;99855.94;;;8.77;100.00
22605;BME280;11469;49.024;8.246;2023-11-21T05:06:50;99860.34;;;8.78;100.00
22605;BME280;11469;49.024;8.246;2023-11-21T05:09:16;99858.44;;;8.82;100.00
22605;BME280;11469;49.024;8.246;2023-11-21T05:11:42;99858.09;;;8.83;100.00
22605;BME280;11469;49.024;8.246;2023-11-21T05:14:07;99858.72;;;8.77;100.00
22605;BME280;11469;49.024;8.246;2023-11-21T05:16:33;99857.09;;;8.76;100.00
22605;BME280;11469;49.024;8.246;2023-11-21T05:19:00;99864.31;;;8.77;100.00
22605;BME280;11469;49.024;8.246;2023-11-21T05:21:29;99861.97;;;8.79;100.00
22605;BME280;11469;49.024;8.246;2023-11-21T05:23:58;99863.50;;;8.76;100.00
22605;BME280;11469;49.024;8.246;2023-11-21T05:26:23;99871.88;;;8.76;100.00
22605;BME280;11469;49.024;8.246;2023-11-21T05:28:48;99874.22;;;8.74;100.00
22605;BME280;11469;49.024;8.246;2023-11-21T05:31:14;99868.28;;;8.76;100.00
22605;BME280;11469;49.024;8.246;2023-11-21T05:33:40;99873.88;;;8.76;100.00
22605;BME280;11469;49.024;8.246;2023-11-21T05:36:07;99878.66;;;8.75;100.00
22605;BME280;11469;49.024;8.246;2023-11-21T05:38:33;99880.63;;;8.75;100.00
22605;BME280;11469;49.024;8.246;2023-11-21T05:40:58;99882.59;;;8.74;100.00
22605;BME280;11469;49.024;8.246;2023-11-21T05:43:24;99885.84;;;8.76;100.00
22605;BME280;11469;49.024;8.246;2023-11-21T05:45:49;99891.81;;;8.75;100.00
22605;BME280;11469;49.024;8.246;2023-11-21T05:48:15;99899.47;;;8.78;100.00
22605;BME280;11469;49.024;8.246;2023-11-21T05:50:41;99900.63;;;8.77;100.00
22605;BME280;11469;49.024;8.246;2023-11-21T05:53:06;99898.19;;;8.75;100.00
22605;BME280;11469;49.024;8.246;2023-11-21T05:55:32;99903.34;;;8.73;100.00
22605;BME280;11469;49.024;8.246;2023-11-21T05:57:58;99904.97;;;8.74;100.00
22605;BME280;11469;49.024;8.246;2023-11-21T06:00:23;99908.22;;;8.76;100.00
22605;BME280;11469;49.024;8.246;2023-11-21T06:02:51;99910.63;;;8.78;100.00
22605;BME280;11469;49.024;8.246;2023-11-21T06:05:20;99908.28;;;8.80;100.00
22605;BME280;11469;49.024;8.246;2023-11-21T06:07:46;99914.25;;;8.78;100.00
22605;BME280;11469;49.024;8.246;2023-11-21T06:10:11;99916.22;;;8.78;100.00
22605;BME280;11469;49.024;8.246;2023-11-21T06:12:39;99915.50;;;8.81;100.00
22605;BME280;11469;49.024;8.246;2023-11-21T06:15:06;99923.78;;;8.77;100.00
22605;BME280;11469;49.024;8.246;2023-11-21T06:17:37;99919.38;;;8.76;100.00
22605;BME280;11469;49.024;8.246;2023-11-21T06:20:06;99920.91;;;8.74;100.00
22605;BME280;11469;49.024;8.246;2023-11-21T06:22:40;99924.59;;;8.78;100.00
22605;BME280;11469;49.024;8.246;2023-11-21T06:25:06;99918.94;;;8.74;100.00
22605;BME280;11469;49.024;8.246;2023-11-21T06:27:33;99926.84;;;8.72;100.00
22605;BME280;11469;49.024;8.246;2023-11-21T06:29:59;99926.13;;;8.75;100.00
22605;BME280;11469;49.024;8.246;2023-11-21T06:32:24;99932.81;;;8.71;100.00
22605;BME280;11469;49.024;8.246;2023-11-21T06:34:51;99932.00;;;8.70;100.00
22605;BME280;11469;49.024;8.246;2023-11-21T06:37:19;99939.22;;;8.71;100.00
22605;BME280;11469;49.024;8.246;2023-11-21T06:39:46;99939.66;;;8.73;100.00
22605;BME280;11469;49.024;8.246;2023-11-21T06:42:11;99942.44;;;8.73;100.00
22605;BME280;11469;49.024;8.246;2023-11-21T06:44:37;99948.41;;;8.72;100.00
22605;BME280;11469;49.024;8.246;2023-11-21T06:47:03;99947.94;;;8.70;100.00
22605;BME280;11469;49.024;8.246;2023-11-21T06:49:28;99943.16;;;8.70;100.00
22605;BME280;11469;49.024;8.246;2023-11-21T06:51:53;99946.78;;;8.71;100.00
22605;BME280;11469;49.024;8.246;2023-11-21T06:54:20;99947.50;;;8.68;100.00
22605;BME280;11469;49.024;8.246;2023-11-21T06:56:46;99951.56;;;8.70;100.00
22605;BME280;11469;49.024;8.246;2023-11-21T06:59:12;99957.84;;;8.67;100.00
22605;BME280;11469;49.024;8.246;2023-11-21T07:01:38;99964.25;;;8.68;100.00
22605;BME280;11469;49.024;8.246;2023-11-21T07:04:06;99969.47;;;8.69;100.00
22605;BME280;11469;49.024;8.246;2023-11-21T07:06:32;99975.97;;;8.73;100.00
22605;BME280;11469;49.024;8.246;2023-11-21T07:08:58;99977.16;;;8.72;100.00
22605;BME280;11469;49.024;8.246;2023-11-21T07:11:24;99977.97;;;8.73;100.00
22605;BME280;11469;49.024;8.246;2023-11-21T07:13:50;99975.97;;;8.73;100.00
22605;BME280;11469;49.024;8.246;2023-11-21T07:16:16;99985.53;;;8.72;100.00
22605;BME280;11469;49.024;8.246;2023-11-21T07:18:41;99989.22;;;8.76;100.00
22605;BME280;11469;49.024;8.246;2023-11-21T07:21:06;99997.25;;;8.78;100.00
22605;BME280;11469;49.024;8.246;2023-11-21T07:23:33;100002.03;;;8.77;100.00
22605;BME280;11469;49.024;8.246;2023-11-21T07:25:59;100011.22;;;8.78;100.00
22605;BME280;11469;49.024;8.246;2023-11-21T07:28:24;100015.19;;;8.77;100.00
22605;BME280;11469;49.024;8.246;2023-11-21T07:30:51;100011.59;;;8.76;100.00
22605;BME280;11469;49.024;8.246;2023-11-21T07:33:16;100016.00;;;8.77;100.00
22605;BME280;11469;49.024;8.246;2023-11-21T07:35:42;100020.41;;;8.78;100.00
22605;BME280;11469;49.024;8.246;2023-11-21T07:38:08;100021.22;;;8.79;100.00
22605;BME280;11469;49.024;8.246;2023-11-21T07:40:33;100026.47;;;8.80;100.00
22605;BME280;11469;49.024;8.246;2023-11-21T07:42:59;100027.72;;;8.83;100.00
22605;BME280;11469;49.024;8.246;2023-11-21T07:45:25;100028.09;;;8.81;100.00
22605;BME280;11469;49.024;8.246;2023-11-21T07:47:55;100044.13;;;8.84;100.00
22605;BME280;11469;49.024;8.246;2023-11-21T07:50:22;100037.72;;;8.84;100.00
22605;BME280;11469;49.024;8.246;2023-11-21T07:52:48;100035.41;;;8.86;100.00
22605;BME280;11469;49.024;8.246;2023-11-21T07:55:15;100041.34;;;8.84;100.00
22605;BME280;11469;49.024;8.246;2023-11-21T07:57:40;100031.63;;;8.94;100.00
22605;BME280;11469;49.024;8.246;2023-11-21T08:00:06;100041.34;;;9.00;100.00
22605;BME280;11469;49.024;8.246;2023-11-21T08:02:34;100036.84;;;8.95;100.00
22605;BME280;11469;49.024;8.246;2023-11-21T08:05:00;100036.91;;;8.99;100.00
22605;BME280;11469;49.024;8.246;2023-11-21T08:07:26;100043.88;;;9.05;100.00
22605;BME280;11469;49.024;8.246;2023-11-21T08:09:51;100049.81;;;9.04;100.00
22605;BME280;11469;49.024;8.246;2023-11-21T08:12:18;100057.47;;;9.07;100.00
22605;BME280;11469;49.024;8.246;2023-11-21T08:14:43;100055.50;;;9.07;100.00
22605;BME280;11469;49.024;8.246;2023-11-21T08:17:09;100065.50;;;9.08;100.00
22605;BME280;11469;49.024;8.246;2023-11-21T08:19:36;100066.88;;;9.14;100.00
22605;BME280;11469;49.024;8.246;2023-11-21T08:22:02;100066.69;;;9.23;100.00
22605;BME280;11469;49.024;8.246;2023-11-21T08:24:28;100065.63;;;9.27;100.00
22605;BME280;11469;49.024;8.246;2023-11-21T08:26:53;100066.88;;;9.30;100.00
22605;BME280;11469;49.024;8.246;2023-11-21T08:29:19;100072.56;;;9.34;100.00
22605;BME280;11469;49.024;8.246;2023-11-21T08:31:45;100077.88;;;9.39;100.00
22605;BME280;11469;49.024;8.246;2023-11-21T08:34:13;100082.75;;;9.42;100.00
22605;BME280;11469;49.024;8.246;2023-11-21T08:36:42;100089.97;;;9.43;100.00
22605;BME280;11469;49.024;8.246;2023-11-21T08:39:08;100087.25;;;9.46;100.00
22605;BME280;11469;49.024;8.246;2023-11-21T08:41:34;100088.25;;;9.38;100.00
22605;BME280;11469;49.024;8.246;2023-11-21T08:44:02;100097.91;;;9.41;100.00
22605;BME280;11469;49.024;8.246;2023-11-21T08:46:31;100094.47;;;9.47;100.00
22605;BME280;11469;49.024;8.246;2023-11-21T08:48:56;100098.69;;;9.57;100.00
22605;BME280;11469;49.024;8.246;2023-11-21T08:51:22;100100.78;;;9.60;100.00
22605;BME280;11469;49.024;8.246;2023-11-21T08:53:47;100104.94;;;9.66;100.00
22605;BME280;11469;49.024;8.246;2023-11-21T08:56:13;100106.72;;;9.58;100.00
22605;BME280;11469;49.024;8.246;2023-11-21T08:58:41;100107.91;;;9.57;100.00
22605;BME280;11469;49.024;8.246;2023-11-21T09:01:06;100104.28;;;9.73;100.00
22605;BME280;11469;49.024;8.246;2023-11-21T09:03:32;100108.72;;;9.74;100.00
22605;BME280;11469;49.024;8.246;2023-11-21T09:05:59;100103.66;;;9.63;100.00
22605;BME280;11469;49.024;8.246;2023-11-21T09:08:25;100109.25;;;9.63;100.00
22605;BME280;11469;49.024;8.246;2023-11-21T09:10:50;100113.94;;;9.59;100.00
22605;BME280;11469;49.024;8.246;2023-11-21T09:13:16;100115.84;;;9.55;100.00
22605;BME280;11469;49.024;8.246;2023-11-21T09:15:42;100121.25;;;9.64;100.00
22605;BME280;11469;49.024;8.246;2023-11-21T09:18:09;100111.59;;;9.61;100.00
22605;BME280;11469;49.024;8.246;2023-11-21T09:20:35;100117.38;;;9.69;100.00
22605;BME280;11469;49.024;8.246;2023-11-21T09:23:01;100122.97;;;9.69;100.00
22605;BME280;11469;49.024;8.246;2023-11-21T09:25:26;100124.59;;;9.70;100.00
22605;BME280;11469;49.024;8.246;2023-11-21T09:27:54;100129.91;;;9.75;100.00
22605;BME280;11469;49.024;8.246;2023-11-21T09:30:19;100137.06;;;9.72;100.00
22605;BME280;11469;49.024;8.246;2023-11-21T09:32:45;100134.72;;;9.74;100.00
22605;BME280;11469;49.024;8.246;2023-11-21T09:35:10;100142.56;;;9.69;100.00
22605;BME280;11469;49.024;8.246;2023-11-21T09:37:36;100152.41;;;9.78;100.00
22605;BME280;11469;49.024;8.246;2023-11-21T09:40:04;100143.47;;;9.73;100.00
22605;BME280;11469;49.024;8.246;2023-11-21T09:42:36;100148.44;;;9.79;100.00
22605;BME280;11469;49.024;8.246;2023-11-21T09:47:38;100148.97;;;9.85;100.00
22605;BME280;11469;49.024;8.246;2023-11-21T09:50:06;100159.13;;;9.93;100.00
22605;BME280;11469;49.024;8.246;2023-11-21T09:55:16;100154.78;;;9.95;100.00
22605;BME280;11469;49.024;8.246;2023-11-21T09:57:44;100164.91;;;10.00;100.00
22605;BME280;11469;49.024;8.246;2023-11-21T10:00:12;100165.72;;;10.01;100.00
22605;BME280;11469;49.024;8.246;2023-11-21T10:02:39;100164.63;;;10.05;100.00
22605;BME280;11469;49.024;8.246;2023-11-21T10:05:06;100162.91;;;10.01;100.00
22605;BME280;11469;49.024;8.246;2023-11-21T10:07:33;100169.78;;;10.03;100.00
22605;BME280;11469;49.024;8.246;2023-11-21T10:10:00;100153.34;;;10.02;100.00
22605;BME280;11469;49.024;8.246;2023-11-21T10:12:28;100164.19;;;10.03;100.00
22605;BME280;11469;49.024;8.246;2023-11-21T10:14:54;100163.00;;;10.04;100.00
22605;BME280;11469;49.024;8.246;2023-11-21T10:17:23;100162.56;;;10.02;100.00
22605;BME280;11469;49.024;8.246;2023-11-21T10:19:51;100172.22;;;10.05;100.00
22605;BME280;11469;49.024;8.246;2023-11-21T10:22:19;100164.25;;;10.07;100.00
22605;BME280;11469;49.024;8.246;2023-11-21T10:24:45;100161.75;;;10.02;100.00
22605;BME280;11469;49.024;8.246;2023-11-21T10:27:11;100167.44;;;10.05;100.00
22605;BME280;11469;49.024;8.246;2023-11-21T10:29:39;100175.03;;;10.05;100.00
22605;BME280;11469;49.024;8.246;2023-11-21T10:32:04;100172.75;;;10.10;100.00
22605;BME280;11469;49.024;8.246;2023-11-21T10:34:31;100172.94;;;10.17;100.00
22605;BME280;11469;49.024;8.246;2023-11-21T10:36:57;100176.81;;;10.13;100.00
22605;BME280;11469;49.024;8.246;2023-11-21T10:39:24;100174.09;;;10.16;100.00
22605;BME280;11469;49.024;8.246;2023-11-21T10:41:53;100181.59;;;10.12;100.00
22605;BME280;11469;49.024;8.246;2023-11-21T10:44:20;100182.78;;;10.11;100.00
22605;BME280;11469;49.024;8.246;2023-11-21T10:46:48;100180.44;;;9.97;100.00
22605;BME280;11469;49.024;8.246;2023-11-21T10:49:17;100187.41;;;10.04;100.00
22605;BME280;11469;49.024;8.246;2023-11-21T10:51:43;100187.94;;;9.93;100.00
22605;BME280;11469;49.024;8.246;2023-11-21T10:54:09;100189.56;;;9.94;100.00
22605;BME280;11469;49.024;8.246;2023-11-21T10:56:36;100196.19;;;9.86;100.00
22605;BME280;11469;49.024;8.246;2023-11-21T10:59:08;100199.78;;;9.71;100.00
22605;BME280;11469;49.024;8.246;2023-11-21T11:01:35;100201.41;;;9.72;100.00
22605;BME280;11469;49.024;8.246;2023-11-21T11:04:02;100199.34;;;9.69;100.00
22605;BME280;11469;49.024;8.246;2023-11-21T11:06:30;100204.31;;;9.60;100.00
22605;BME280;11469;49.024;8.246;2023-11-21T11:08:58;100200.75;;;9.47;100.00
22605;BME280;11469;49.024;8.246;2023-11-21T11:11:25;100208.88;;;9.52;100.00
22605;BME280;11469;49.024;8.246;2023-11-21T11:13:51;100214.03;;;9.50;100.00
22605;BME280;11469;49.024;8.246;2023-11-21T11:16:17;100212.25;;;9.42;100.00
22605;BME280;11469;49.024;8.246;2023-11-21T11:18:43;100205.63;;;9.50;100.00
22605;BME280;11469;49.024;8.246;2023-11-21T11:21:44;100209.25;;;9.51;100.00
22605;BME280;11469;49.024;8.246;2023-11-21T11:24:29;100212.84;;;9.51;100.00
22605;BME280;11469;49.024;8.246;2023-11-21T11:32:58;100208.88;;;9.52;100.00
22605;BME280;11469;49.024;8.246;2023-11-21T11:35:38;100205.81;;;9.57;100.00
22605;BME280;11469;49.024;8.246;2023-11-21T11:38:07;100206.94;;;9.69;100.00
22605;BME280;11469;49.024;8.246;2023-11-21T11:40:45;100210.19;;;9.71;100.00
22605;BME280;11469;49.024;8.246;2023-11-21T11:43:11;100213.88;;;9.75;100.00
22605;BME280;11469;49.024;8.246;2023-11-21T11:45:36;100213.63;;;9.80;100.00
22605;BME280;11469;49.024;8.246;2023-11-21T11:48:06;100209.19;;;9.79;100.00
22605;BME280;11469;49.024;8.246;2023-11-21T11:50:32;100209.63;;;9.81;100.00
22605;BME280;11469;49.024;8.246;2023-11-21T11:53:15;100205.22;;;9.80;100.00
22605;BME280;11469;49.024;8.246;2023-11-21T11:55:41;100214.69;;;9.75;100.00
22605;BME280;11469;49.024;8.246;2023-11-21T11:58:07;100220.19;;;9.72;100.00
22605;BME280;11469;49.024;8.246;2023-11-21T12:00:34;100212.81;;;9.79;100.00
22605;BME280;11469;49.024;8.246;2023-11-21T12:03:04;100220.75;;;9.77;100.00
22605;BME280;11469;49.024;8.246;2023-11-21T12:05:32;100210.47;;;9.81;100.00
22605;BME280;11469;49.024;8.246;2023-11-21T12:07:59;100213.88;;;9.75;100.00
22605;BME280;11469;49.024;8.246;2023-11-21T12:10:27;100227.06;;;9.74;100.00
22605;BME280;11469;49.024;8.246;2023-11-21T12:12:57;100216.78;;;9.78;100.00
22605;BME280;11469;49.024;8.246;2023-11-21T12:15:24;100216.06;;;9.81;100.00
22605;BME280;11469;49.024;8.246;2023-11-21T12:17:51;100219.84;;;9.73;100.00
22605;BME280;11469;49.024;8.246;2023-11-21T12:20:22;100218.66;;;9.74;100.00
22605;BME280;11469;49.024;8.246;2023-11-21T12:22:56;100217.22;;;9.80;100.00
22605;BME280;11469;49.024;8.246;2023-11-21T12:25:28;100229.03;;;9.74;100.00
22605;BME280;11469;49.024;8.246;2023-11-21T12:27:55;100220.28;;;9.75;100.00
22605;BME280;11469;49.024;8.246;2023-11-21T12:30:24;100230.41;;;9.80;100.00
22605;BME280;11469;49.024;8.246;2023-11-21T12:32:52;100230.59;;;9.87;100.00
22605;BME280;11469;49.024;8.246;2023-11-21T12:35:19;100230.50;;;9.83;100.00
22605;BME280;11469;49.024;8.246;2023-11-21T12:37:47;100228.25;;;9.89;100.00
22605;BME280;11469;49.024;8.246;2023-11-21T12:40:14;100234.28;;;9.91;100.00
22605;BME280;11469;49.024;8.246;2023-11-21T12:42:45;100233.03;;;9.88;100.00
22605;BME280;11469;49.024;8.246;2023-11-21T12:45:21;100237.25;;;9.98;100.00
22605;BME280;11469;49.024;8.246;2023-11-21T12:47:49;100239.31;;;10.01;100.00
22605;BME280;11469;49.024;8.246;2023-11-21T12:50:19;100247.72;;;10.01;100.00
22605;BME280;11469;49.024;8.246;2023-11-21T12:52:50;100245.75;;;10.02;100.00
22605;BME280;11469;49.024;8.246;2023-11-21T12:55:17;100243.41;;;9.88;100.00
22605;BME280;11469;49.024;8.246;2023-11-21T12:57:49;100246.38;;;9.95;100.00
22605;BME280;11469;49.024;8.246;2023-11-21T13:00:18;100250.63;;;9.89;100.00
22605;BME280;11469;49.024;8.246;2023-11-21T13:02:54;100257.56;;;9.95;100.00
22605;BME280;11469;49.024;8.246;2023-11-21T13:05:30;100258.38;;;9.95;100.00